Time;durP1;ratioP1;P1;durP2;ratioP2;P2;SDS_P1;SDS_P2;PMS_P1;PMS_P2;Temp;Humidity;BMP_temperature;BMP_pressure;BME280_temperature;BME280_humidity;BME280_pressure;Samples;Min_cycle;Max_cycle;Signal;HPM_P1;HPM_P2
2021/03/26 00:01:22;;;;;;;21.57;10.40;;;;;;;3.02;100.00;94282.59;5094485;28;20290;-78
2021/03/26 00:03:51;;;;;;;21.10;8.50;;;;;;;3.00;100.00;94283.69;5094211;28;20226;-76
2021/03/26 00:06:20;;;;;;;19.07;9.53;;;;;;;2.99;100.00;94287.25;5094553;28;20198;-78
2021/03/26 00:08:46;;;;;;;20.10;8.87;;;;;;;2.88;100.00;94290.78;5094456;28;20198;-77
2021/03/26 00:11:13;;;;;;;20.20;7.97;;;;;;;2.68;100.00;94282.28;5094273;28;20267;-76
2021/03/26 00:13:41;;;;;;;15.50;7.17;;;;;;;2.46;100.00;94286.81;5094196;28;20209;-78
2021/03/26 00:16:07;;;;;;;24.20;7.90;;;;;;;2.48;100.00;94290.09;5094126;28;20213;-76
2021/03/26 00:18:33;;;;;;;21.37;8.30;;;;;;;2.49;100.00;94290.91;5093940;28;20194;-77
2021/03/26 00:21:00;;;;;;;22.15;10.45;;;;;;;2.44;100.00;94288.72;5093459;28;20437;-79
2021/03/26 00:23:26;;;;;;;22.20;10.33;;;;;;;2.48;100.00;94279.78;5094091;28;20253;-77
2021/03/26 00:25:52;;;;;;;28.73;10.03;;;;;;;2.45;100.00;94285.22;5093938;28;20525;-77
2021/03/26 00:28:18;;;;;;;27.27;10.57;;;;;;;2.55;100.00;94282.63;5094006;28;20553;-78
2021/03/26 00:30:45;;;;;;;21.93;10.00;;;;;;;2.56;100.00;94287.59;5093884;28;20221;-78
2021/03/26 00:33:11;;;;;;;38.80;10.73;;;;;;;2.54;100.00;94284.38;5093534;28;20238;-77
2021/03/26 00:35:38;;;;;;;26.57;9.90;;;;;;;2.51;100.00;94284.63;5093921;28;20628;-78
2021/03/26 00:38:05;;;;;;;24.80;10.23;;;;;;;2.61;100.00;94278.66;5093729;28;20588;-78
2021/03/26 00:40:32;;;;;;;17.20;9.13;;;;;;;2.48;100.00;94284.94;5093457;28;20201;-76
2021/03/26 00:42:58;;;;;;;23.33;9.47;;;;;;;2.58;100.00;94279.75;5093144;28;20225;-77
2021/03/26 00:45:27;;;;;;;19.93;9.83;;;;;;;2.45;100.00;94276.66;5093479;28;20251;-77
2021/03/26 00:47:54;;;;;;;21.83;9.43;;;;;;;2.50;100.00;94277.88;5093435;28;20209;-76
2021/03/26 00:50:22;;;;;;;23.43;10.33;;;;;;;2.34;100.00;94277.63;5093686;28;20198;-77
2021/03/26 00:52:48;;;;;;;23.80;9.23;;;;;;;2.29;100.00;94275.47;5093664;28;20198;-80
2021/03/26 00:55:16;;;;;;;20.30;8.80;;;;;;;2.19;100.00;94278.03;5093481;28;20198;-78
2021/03/26 00:57:42;;;;;;;21.40;10.23;;;;;;;2.07;100.00;94273.19;5093308;28;20202;-78
2021/03/26 01:00:12;;;;;;;22.40;9.37;;;;;;;2.05;100.00;94268.16;5092935;28;20205;-77
2021/03/26 01:02:38;;;;;;;25.73;9.93;;;;;;;2.07;100.00;94266.25;5093527;28;20218;-78
2021/03/26 01:05:07;;;;;;;22.57;9.77;;;;;;;2.05;100.00;94265.59;5093564;28;20251;-78
2021/03/26 01:07:33;;;;;;;28.83;10.93;;;;;;;2.04;100.00;94269.09;5093373;28;20205;-78
2021/03/26 01:09:59;;;;;;;24.70;10.30;;;;;;;2.05;100.00;94260.44;5093319;28;20214;-78
2021/03/26 01:12:25;;;;;;;23.13;10.47;;;;;;;2.12;100.00;94258.94;5093162;28;20719;-77
2021/03/26 01:14:51;;;;;;;25.90;10.67;;;;;;;2.24;100.00;94269.91;5093120;28;20205;-76
2021/03/26 01:17:18;;;;;;;25.83;9.43;;;;;;;2.25;100.00;94255.25;5093313;28;20208;-77
2021/03/26 01:19:44;;;;;;;27.73;10.30;;;;;;;2.19;100.00;94260.00;5093054;28;20302;-78
2021/03/26 01:22:12;;;;;;;24.27;10.97;;;;;;;2.21;100.00;94258.13;5093097;28;20248;-78
2021/03/26 01:24:38;;;;;;;26.87;10.70;;;;;;;2.22;100.00;94244.28;5092962;28;20202;-77
2021/03/26 01:27:05;;;;;;;24.13;10.43;;;;;;;2.19;100.00;94254.84;5093026;28;20204;-77
2021/03/26 01:29:31;;;;;;;26.57;11.67;;;;;;;2.37;100.00;94251.59;5093192;28;20202;-77
2021/03/26 01:31:57;;;;;;;27.80;10.87;;;;;;;2.43;100.00;94245.88;5092968;28;20202;-77
2021/03/26 01:34:23;;;;;;;30.33;9.83;;;;;;;2.37;100.00;94236.13;5092924;28;20282;-77
2021/03/26 01:36:50;;;;;;;35.03;11.77;;;;;;;2.43;100.00;94243.28;5092958;28;20618;-78
2021/03/26 01:39:18;;;;;;;31.37;11.73;;;;;;;2.54;100.00;94235.41;5092968;28;20202;-78
2021/03/26 01:41:48;;;;;;;27.67;9.70;;;;;;;2.43;100.00;94235.56;5092813;28;20202;-77
2021/03/26 01:44:16;;;;;;;20.47;9.30;;;;;;;2.35;100.00;94236.28;5092991;28;20236;-77
2021/03/26 01:46:44;;;;;;;17.83;7.60;;;;;;;2.26;100.00;94239.66;5092821;28;20208;-77
2021/03/26 01:49:10;;;;;;;26.60;9.77;;;;;;;2.30;100.00;94235.03;5092819;28;20223;-78
2021/03/26 01:51:38;;;;;;;22.13;10.43;;;;;;;2.47;100.00;94233.53;5092906;28;20553;-77
2021/03/26 01:54:06;;;;;;;20.30;10.33;;;;;;;2.59;100.00;94235.78;5096315;28;20557;-77
2021/03/26 01:56:33;;;;;;;29.57;10.17;;;;;;;2.70;100.00;94231.44;5097167;28;20293;-78
2021/03/26 01:59:00;;;;;;;25.10;9.97;;;;;;;2.87;100.00;94229.88;5096899;28;20201;-78
2021/03/26 02:01:30;;;;;;;25.13;9.93;;;;;;;2.87;100.00;94222.16;5097058;28;20201;-77
2021/03/26 02:04:00;;;;;;;24.70;10.33;;;;;;;2.84;100.00;94223.22;5096949;28;20230;-78
2021/03/26 02:06:29;;;;;;;20.33;9.33;;;;;;;2.93;100.00;94221.56;5096657;28;20202;-77
2021/03/26 02:09:03;;;;;;;22.83;8.93;;;;;;;2.91;100.00;94224.28;5096742;28;20205;-77
2021/03/26 02:11:37;;;;;;;27.13;12.23;;;;;;;2.89;100.00;94222.81;5096406;28;20495;-78
2021/03/26 02:14:09;;;;;;;20.60;9.30;;;;;;;2.90;100.00;94227.81;5096418;28;20198;-77
2021/03/26 02:16:35;;;;;;;22.53;8.73;;;;;;;2.76;100.00;94220.53;5096503;28;20209;-78
2021/03/26 02:19:01;;;;;;;18.67;8.80;;;;;;;2.58;100.00;94221.28;5096225;28;20634;-79
2021/03/26 02:21:30;;;;;;;22.60;7.90;;;;;;;2.44;100.00;94216.56;5096718;28;20197;-78
2021/03/26 02:23:58;;;;;;;21.77;9.53;;;;;;;2.22;100.00;94217.72;5096174;28;20226;-77
2021/03/26 02:26:27;;;;;;;16.80;7.90;;;;;;;2.06;100.00;94212.31;5096181;28;20740;-77
2021/03/26 02:28:57;;;;;;;18.87;7.47;;;;;;;1.99;100.00;94217.22;5096376;28;20323;-77
2021/03/26 02:31:24;;;;;;;20.53;8.87;;;;;;;1.87;100.00;94219.13;5095424;28;20220;-77
2021/03/26 02:33:51;;;;;;;19.03;8.67;;;;;;;1.83;100.00;94217.75;5096038;28;20221;-78
2021/03/26 02:36:45;;;;;;;18.70;9.30;;;;;;;1.75;100.00;94215.03;5096147;28;20198;-77
2021/03/26 02:39:22;;;;;;;26.90;9.47;;;;;;;1.75;100.00;94217.59;5096211;28;20198;-77
2021/03/26 02:41:52;;;;;;;22.53;9.13;;;;;;;1.82;100.00;94211.78;5096198;28;20560;-77
2021/03/26 02:44:26;;;;;;;25.23;10.63;;;;;;;1.80;100.00;94211.13;5095918;28;20233;-77
2021/03/26 02:47:01;;;;;;;27.97;11.60;;;;;;;1.82;100.00;94205.84;5095727;28;20563;-78
2021/03/26 02:49:34;;;;;;;31.70;13.63;;;;;;;1.75;100.00;94210.72;5095076;28;20552;-78
2021/03/26 02:52:08;;;;;;;23.30;10.23;;;;;;;1.62;100.00;94210.97;5095804;28;20202;-77
2021/03/26 02:54:40;;;;;;;22.03;9.37;;;;;;;1.59;100.00;94210.44;5095571;28;20282;-77
2021/03/26 02:57:09;;;;;;;30.17;10.80;;;;;;;1.57;100.00;94202.84;5095970;28;20216;-77
2021/03/26 02:59:41;;;;;;;22.97;9.57;;;;;;;1.53;100.00;94201.47;5095528;28;20206;-77
2021/03/26 03:02:11;;;;;;;33.40;13.48;;;;;;;1.54;100.00;94199.75;5094488;28;20459;-78
2021/03/26 03:04:42;;;;;;;27.60;11.10;;;;;;;1.45;100.00;94202.19;5094739;28;20233;-77
2021/03/26 03:07:12;;;;;;;30.60;10.60;;;;;;;1.41;100.00;94208.53;5095227;28;20205;-77
2021/03/26 03:09:42;;;;;;;28.33;9.97;;;;;;;1.43;100.00;94195.53;5095759;28;20282;-77
2021/03/26 03:12:15;;;;;;;22.53;10.53;;;;;;;1.38;100.00;94205.41;5095574;28;20243;-77
2021/03/26 03:14:46;;;;;;;21.33;9.53;;;;;;;1.21;100.00;94201.72;5095397;28;20698;-77
2021/03/26 03:17:18;;;;;;;20.40;9.40;;;;;;;1.21;100.00;94202.53;5095263;28;20206;-77
2021/03/26 03:19:51;;;;;;;32.83;10.20;;;;;;;1.18;100.00;94196.84;5094562;28;20226;-77
2021/03/26 03:22:22;;;;;;;26.13;10.60;;;;;;;1.14;100.00;94190.38;5095220;28;20208;-77
2021/03/26 03:24:50;;;;;;;23.07;10.03;;;;;;;1.21;100.00;94194.03;5095413;28;20284;-77
2021/03/26 03:27:29;;;;;;;27.07;10.90;;;;;;;1.16;100.00;94189.28;5095187;28;20194;-77
2021/03/26 03:30:03;;;;;;;30.60;11.30;;;;;;;1.17;100.00;94190.09;5094767;28;20204;-78
2021/03/26 03:32:35;;;;;;;29.90;11.00;;;;;;;1.19;100.00;94186.44;5095150;28;20210;-77
2021/03/26 03:35:10;;;;;;;29.00;11.80;;;;;;;1.24;100.00;94186.03;5094644;28;20202;-77
2021/03/26 03:37:41;;;;;;;31.10;12.00;;;;;;;1.31;100.00;94186.31;5094683;28;20193;-77
2021/03/26 03:40:16;;;;;;;34.83;11.67;;;;;;;1.52;100.00;94176.72;5094996;28;20685;-78
2021/03/26 03:42:52;;;;;;;27.50;12.17;;;;;;;1.45;100.00;94173.88;5094742;28;20576;-77
2021/03/26 03:45:22;;;;;;;30.33;11.20;;;;;;;1.41;100.00;94171.72;5094632;28;20205;-77
2021/03/26 03:47:53;;;;;;;40.60;13.13;;;;;;;1.41;100.00;94171.72;5094861;28;20202;-77
2021/03/26 03:50:24;;;;;;;27.80;11.77;;;;;;;1.38;100.00;94172.81;5094676;28;20198;-77
2021/03/26 03:52:56;;;;;;;29.47;11.57;;;;;;;1.25;100.00;94167.91;5094667;28;20205;-77
2021/03/26 03:55:30;;;;;;;29.07;12.33;;;;;;;1.24;100.00;94161.13;5094562;28;20292;-77
2021/03/26 03:58:02;;;;;;;27.87;11.80;;;;;;;1.22;100.00;94162.22;5094366;28;20204;-78
2021/03/26 04:00:33;;;;;;;33.53;13.03;;;;;;;1.15;100.00;94167.09;5094190;28;20584;-78
2021/03/26 04:03:10;;;;;;;33.90;12.80;;;;;;;1.17;100.00;94161.81;5094498;28;20234;-77
2021/03/26 04:05:41;;;;;;;34.90;12.47;;;;;;;1.17;100.00;94164.38;5094546;28;20210;-77
2021/03/26 04:08:15;;;;;;;33.50;11.67;;;;;;;1.18;100.00;94161.66;5094394;28;20240;-78
2021/03/26 04:10:46;;;;;;;33.73;12.93;;;;;;;1.15;100.00;94171.41;5094351;28;20198;-77
2021/03/26 04:13:20;;;;;;;28.87;12.33;;;;;;;1.14;100.00;94160.31;5094169;28;20208;-78
2021/03/26 04:15:54;;;;;;;31.87;13.83;;;;;;;1.20;100.00;94171.81;5094125;28;20194;-78
2021/03/26 04:18:26;;;;;;;41.60;14.67;;;;;;;1.31;100.00;94160.59;5094363;28;20209;-77
2021/03/26 04:21:00;;;;;;;43.10;13.77;;;;;;;1.34;100.00;94163.72;5094175;28;20194;-78
2021/03/26 04:23:32;;;;;;;34.28;14.77;;;;;;;1.23;100.00;94156.94;5093124;28;20444;-78
2021/03/26 04:26:09;;;;;;;32.70;13.50;;;;;;;1.22;100.00;94163.03;5073744;28;20198;-76
2021/03/26 04:28:41;;;;;;;35.53;13.77;;;;;;;1.25;100.00;94164.50;5073541;28;20247;-77
2021/03/26 04:31:13;;;;;;;33.33;13.23;;;;;;;1.25;100.00;94167.91;5073775;28;20254;-77
2021/03/26 04:33:39;;;;;;;34.67;13.73;;;;;;;1.22;100.00;94162.22;5073727;28;20206;-77
2021/03/26 04:36:07;;;;;;;29.03;12.30;;;;;;;1.08;100.00;94164.25;5073623;28;20290;-77
2021/03/26 04:38:43;;;;;;;32.67;12.03;;;;;;;1.14;100.00;94159.50;5073259;28;20657;-77
2021/03/26 04:41:16;;;;;;;42.70;13.37;;;;;;;1.28;100.00;94153.94;5073711;28;20202;-77
2021/03/26 04:43:50;;;;;;;34.17;14.33;;;;;;;1.55;100.00;94157.63;5072901;28;20249;-77
2021/03/26 04:46:22;;;;;;;39.97;12.83;;;;;;;1.55;100.00;94157.63;5073174;28;20649;-79
2021/03/26 04:48:53;;;;;;;32.57;12.60;;;;;;;1.53;100.00;94162.09;5073180;28;20684;-78
2021/03/26 04:51:23;;;;;;;33.23;14.03;;;;;;;1.55;100.00;94158.44;5073390;28;20242;-77
2021/03/26 04:54:00;;;;;;;37.67;12.50;;;;;;;1.44;100.00;94167.09;5073564;28;20259;-77
2021/03/26 04:56:33;;;;;;;30.77;12.40;;;;;;;1.50;100.00;94162.34;5073356;28;20233;-77
2021/03/26 04:59:06;;;;;;;32.50;13.37;;;;;;;1.43;100.00;94162.91;5073002;28;20297;-77
2021/03/26 05:01:32;;;;;;;30.07;11.90;;;;;;;1.46;100.00;94160.06;5073034;28;20195;-79
2021/03/26 05:04:06;;;;;;;32.60;12.67;;;;;;;1.48;100.00;94157.34;5073246;28;20789;-77
2021/03/26 05:06:40;;;;;;;33.53;11.40;;;;;;;1.68;100.00;94168.44;5072850;28;20203;-76
2021/03/26 05:09:11;;;;;;;37.63;15.83;;;;;;;1.55;100.00;94168.75;5072531;28;20430;-77
2021/03/26 05:11:43;;;;;;;33.53;12.10;;;;;;;1.56;100.00;94160.06;5072751;28;20214;-79
2021/03/26 05:14:15;;;;;;;25.97;11.57;;;;;;;1.46;100.00;94160.06;5072757;28;20645;-78
2021/03/26 05:16:51;;;;;;;27.43;11.57;;;;;;;1.39;100.00;94158.97;5073035;28;20202;-78
2021/03/26 05:19:25;;;;;;;31.23;12.10;;;;;;;1.30;100.00;94164.94;5072080;28;20519;-77
2021/03/26 05:21:57;;;;;;;25.63;11.17;;;;;;;1.50;100.00;94155.47;5073064;28;20209;-77
2021/03/26 05:24:29;;;;;;;29.80;11.10;;;;;;;1.55;100.00;94147.31;5072645;28;20222;-77
2021/03/26 05:26:58;;;;;;;31.87;11.93;;;;;;;1.90;100.00;94148.50;5072575;28;20198;-77
2021/03/26 05:29:25;;;;;;;29.03;12.23;;;;;;;1.99;100.00;94145.91;5072836;28;20214;-77
2021/03/26 05:32:10;;;;;;;27.67;11.93;;;;;;;2.06;100.00;94146.16;5072564;28;20203;-78
2021/03/26 05:34:45;;;;;;;36.97;12.40;;;;;;;2.16;100.00;94152.09;5072498;28;20226;-79
2021/03/26 05:37:17;;;;;;;27.43;11.50;;;;;;;2.21;100.00;94154.28;5072826;28;20222;-78
2021/03/26 05:39:46;;;;;;;31.37;11.20;;;;;;;2.25;100.00;94149.66;5072712;28;20201;-77
2021/03/26 05:42:35;;;;;;;27.57;10.93;;;;;;;2.27;100.00;94158.06;5072773;28;20195;-77
2021/03/26 05:45:18;;;;;;;33.07;11.77;;;;;;;2.22;100.00;94148.97;5072511;28;20683;-77
2021/03/26 05:48:09;;;;;;;27.77;11.03;;;;;;;2.17;100.00;94147.78;5072757;28;20198;-79
2021/03/26 05:50:48;;;;;;;27.70;10.10;;;;;;;2.07;100.00;94152.97;5072408;28;20198;-77
2021/03/26 05:53:25;;;;;;;24.47;10.43;;;;;;;1.97;100.00;94152.97;5072644;28;20206;-77
2021/03/26 05:55:57;;;;;;;31.73;13.73;;;;;;;1.96;100.00;94150.53;5071281;28;20469;-77
2021/03/26 05:58:42;;;;;;;33.93;12.30;;;;;;;1.88;100.00;94151.22;5072425;28;20217;-78
2021/03/26 06:01:36;;;;;;;28.67;10.80;;;;;;;1.97;100.00;94144.44;5072382;28;20205;-77
2021/03/26 06:04:42;;;;;;;25.00;11.30;;;;;;;2.01;100.00;94143.22;5054385;28;20223;-77
2021/03/26 06:07:21;;;;;;;26.80;11.13;;;;;;;2.03;100.00;94141.28;5072306;28;20206;-77
2021/03/26 06:10:09;;;;;;;27.40;11.60;;;;;;;2.17;100.00;94140.88;5072332;28;20232;-79
2021/03/26 06:13:12;;;;;;;24.67;10.57;;;;;;;2.27;100.00;94143.41;5072275;28;20203;-78
2021/03/26 06:16:11;;;;;;;26.50;10.90;;;;;;;2.31;100.00;94144.75;5072540;28;20206;-78
2021/03/26 06:18:56;;;;;;;32.80;11.53;;;;;;;2.47;100.00;94141.56;5071832;28;20699;-77
2021/03/26 06:21:28;;;;;;;27.93;11.60;;;;;;;2.57;100.00;94144.91;5072295;28;20203;-77
2021/03/26 06:24:06;;;;;;;26.70;10.23;;;;;;;2.57;100.00;94147.50;5077905;28;20248;-77
2021/03/26 06:26:47;;;;;;;29.13;12.10;;;;;;;2.63;100.00;94142.72;5092398;28;20251;-78
2021/03/26 06:29:25;;;;;;;29.17;12.30;;;;;;;2.70;100.00;94154.09;5092455;28;20652;-78
2021/03/26 06:32:41;;;;;;;29.93;11.87;;;;;;;2.84;100.00;94145.88;5092413;28;20587;-76
2021/03/26 06:35:35;;;;;;;32.60;12.30;;;;;;;2.95;100.00;94152.63;5087749;28;20206;-77
2021/03/26 06:38:28;;;;;;;25.63;11.57;;;;;;;3.00;100.00;94152.16;5092454;28;20202;-77
2021/03/26 06:41:10;;;;;;;27.33;10.40;;;;;;;3.11;100.00;94147.63;5095323;28;20229;-76
2021/03/26 06:44:06;;;;;;;38.83;13.85;;;;;;;3.26;100.00;94153.09;5094753;28;20453;-77
2021/03/26 06:46:41;;;;;;;27.57;11.97;;;;;;;3.46;100.00;94150.38;5096080;28;20564;-77
2021/03/26 06:49:17;;;;;;;25.70;11.50;;;;;;;3.64;100.00;94143.44;5096009;28;20220;-78
2021/03/26 06:51:55;;;;;;;28.53;13.43;;;;;;;3.75;100.00;94144.16;5095549;28;20288;-77
2021/03/26 06:54:49;;;;;;;31.23;14.20;;;;;;;3.89;100.00;94147.00;5095192;28;20440;-76
2021/03/26 06:57:57;;;;;;;22.13;9.57;;;;;;;4.07;100.00;94152.16;5095599;28;20220;-76
2021/03/26 07:00:46;;;;;;;21.43;9.57;;;;;;;4.24;100.00;94147.09;5095595;28;20198;-77
2021/03/26 07:03:39;;;;;;;22.97;10.30;;;;;;;4.47;100.00;94149.16;5095714;28;20282;-77
2021/03/26 07:06:34;;;;;;;34.97;14.00;;;;;;;4.75;100.00;94150.59;5078549;28;20657;-77
2021/03/26 07:09:17;;;;;;;34.23;11.27;;;;;;;4.96;100.00;94154.53;5095334;28;20812;-76
2021/03/26 07:12:00;;;;;;;35.20;10.97;;;;;;;5.23;100.00;94144.91;5095600;28;20202;-78
2021/03/26 07:14:45;;;;;;;24.97;9.97;;;;;;;5.69;100.00;94150.47;5095525;28;20538;-77
2021/03/26 07:17:34;;;;;;;29.60;11.83;;;;;;;5.98;100.00;94144.03;5094992;28;20816;-76
2021/03/26 07:20:17;;;;;;;23.80;10.60;;;;;;;6.19;100.00;94143.53;5095279;28;20234;-77
2021/03/26 07:23:17;;;;;;;23.43;10.53;;;;;;;6.42;100.00;94149.63;5095339;28;20206;-77
2021/03/26 07:25:53;;;;;;;36.97;13.63;;;;;;;6.69;100.00;94141.63;5091901;28;20275;-76
2021/03/26 07:28:30;;;;;;;23.30;10.27;;;;;;;6.88;100.00;94136.06;5094989;28;20202;-77
2021/03/26 07:31:09;;;;;;;29.63;9.97;;;;;;;7.01;100.00;94141.50;5095218;28;20227;-76
2021/03/26 07:33:40;;;;;;;21.27;10.63;;;;;;;7.19;100.00;94137.84;5094759;28;20197;-78
2021/03/26 07:36:15;;;;;;;26.07;10.73;;;;;;;7.32;100.00;94135.50;5095233;28;20205;-76
2021/03/26 07:39:19;;;;;;;21.50;9.37;;;;;;;7.48;100.00;94142.38;5094791;28;20560;-77
2021/03/26 07:42:16;;;;;;;21.73;10.30;;;;;;;7.70;100.00;94138.19;5094833;28;20774;-76
2021/03/26 07:44:53;;;;;;;17.47;8.70;;;;;;;7.91;97.74;94132.34;5094604;28;20230;-76
2021/03/26 07:47:37;;;;;;;19.03;7.73;;;;;;;8.12;96.07;94134.25;5094840;28;20221;-75
2021/03/26 07:50:35;;;;;;;20.43;8.53;;;;;;;8.28;90.39;94127.31;5094293;28;20202;-77
2021/03/26 07:53:16;;;;;;;18.23;8.23;;;;;;;8.41;89.87;94135.31;5094563;28;20202;-77
2021/03/26 07:55:49;;;;;;;14.60;7.67;;;;;;;8.63;88.54;94132.84;5094792;28;20603;-77
2021/03/26 07:59:15;;;;;;;17.03;7.70;;;;;;;8.78;84.58;94123.22;5094691;28;20198;-79
2021/03/26 08:02:03;;;;;;;19.17;7.73;;;;;;;8.93;87.40;94130.22;4997154;28;20196;-81
2021/03/26 08:04:35;;;;;;;19.77;8.40;;;;;;;9.10;90.18;94133.44;5032056;28;20630;-81
2021/03/26 08:07:32;;;;;;;16.70;7.37;;;;;;;9.19;86.96;94127.94;5082395;28;20214;-81
2021/03/26 08:10:13;;;;;;;17.20;7.40;;;;;;;9.36;83.38;94117.28;5094509;28;20198;-81
2021/03/26 08:12:52;;;;;;;17.33;8.33;;;;;;;9.42;84.00;94124.38;5094048;28;20198;-81
2021/03/26 08:15:45;;;;;;;17.50;7.80;;;;;;;9.42;82.30;94121.75;5094297;28;20289;-81
2021/03/26 08:18:28;;;;;;;18.33;7.13;;;;;;;9.61;85.76;94128.97;5094397;28;20202;-80
2021/03/26 08:21:05;;;;;;;19.00;7.33;;;;;;;9.70;80.07;94123.66;5094283;28;20194;-80
2021/03/26 08:23:42;;;;;;;18.63;7.20;;;;;;;9.89;80.96;94117.00;5093973;28;20707;-80
2021/03/26 08:26:18;;;;;;;15.27;6.57;;;;;;;10.05;79.34;94126.38;5093689;28;20660;-80
2021/03/26 08:29:01;;;;;;;18.97;6.10;;;;;;;10.33;81.07;94123.78;5094109;28;20202;-81
2021/03/26 08:31:46;;;;;;;17.80;6.57;;;;;;;10.51;79.76;94118.91;5093585;28;20343;-82
2021/03/26 08:34:33;;;;;;;17.90;6.60;;;;;;;10.72;79.50;94122.41;5093875;28;20202;-81
2021/03/26 08:37:09;;;;;;;20.10;6.30;;;;;;;10.75;75.03;94114.22;5093952;28;20247;-80
2021/03/26 08:39:41;;;;;;;12.27;6.70;;;;;;;10.67;75.05;94112.56;5093524;28;20233;-80
2021/03/26 08:42:15;;;;;;;13.10;6.40;;;;;;;10.79;73.86;94122.47;5093842;28;20209;-81
2021/03/26 08:44:47;;;;;;;20.00;6.27;;;;;;;10.99;75.90;94117.34;5093572;28;20229;-80
2021/03/26 08:47:23;;;;;;;12.43;5.90;;;;;;;10.99;73.51;94115.53;5093867;28;20194;-80
2021/03/26 08:50:02;;;;;;;15.03;5.80;;;;;;;11.16;73.80;94115.19;5093631;28;20193;-80
2021/03/26 08:52:55;;;;;;;14.30;6.37;;;;;;;11.23;72.77;94123.88;5093569;28;20198;-81
2021/03/26 08:55:51;;;;;;;18.83;5.50;;;;;;;11.26;69.16;94119.06;5093592;28;20584;-82
2021/03/26 08:58:44;;;;;;;16.30;5.37;;;;;;;11.29;71.14;94116.06;5080543;28;20553;-80
2021/03/26 09:01:47;;;;;;;13.53;5.47;;;;;;;11.30;66.66;94116.84;5093393;28;20201;-81
2021/03/26 09:04:32;;;;;;;11.53;5.27;;;;;;;11.44;70.55;94112.47;5093200;28;20290;-79
2021/03/26 09:07:11;;;;;;;14.13;5.83;;;;;;;11.44;68.94;94121.13;5093355;28;20233;-79
2021/03/26 09:09:50;;;;;;;13.53;5.20;;;;;;;11.54;68.38;94112.09;5092956;28;20556;-81
2021/03/26 09:12:37;;;;;;;11.17;4.60;;;;;;;11.59;68.17;94120.16;5093320;28;20221;-80
2021/03/26 09:15:18;;;;;;;12.03;4.77;;;;;;;11.50;66.80;94111.69;5093209;28;20207;-76
2021/03/26 09:17:52;;;;;;;8.40;4.37;;;;;;;11.55;66.48;94108.47;5074497;28;20198;-83
2021/03/26 09:20:27;;;;;;;11.87;4.20;;;;;;;11.66;66.61;94111.31;5092959;28;20229;-81
2021/03/26 09:23:27;;;;;;;10.37;4.87;;;;;;;11.60;68.33;94106.06;5094289;28;20205;-80
2021/03/26 09:25:55;;;;;;;8.07;4.27;;;;;;;11.61;66.55;94105.88;5079684;28;20263;-81
2021/03/26 09:28:29;;;;;;;8.53;4.47;;;;;;;11.85;66.04;94108.94;5092919;28;20205;-77
2021/03/26 09:31:03;;;;;;;13.77;4.77;;;;;;;11.88;63.30;94110.34;5093254;28;20272;-79
2021/03/26 09:33:29;;;;;;;11.20;4.70;;;;;;;11.79;67.57;94102.69;5093094;28;20552;-79
2021/03/26 09:36:01;;;;;;;10.83;4.93;;;;;;;11.82;68.68;94106.72;5092350;28;20202;-82
2021/03/26 09:38:37;;;;;;;6.60;3.50;;;;;;;11.98;61.30;94108.97;5093033;28;20239;-80
2021/03/26 09:41:22;;;;;;;7.63;3.90;;;;;;;11.91;62.68;94113.41;5093028;28;20209;-78
2021/03/26 09:43:56;;;;;;;7.37;3.70;;;;;;;11.86;62.23;94105.31;5092739;28;20233;-83
2021/03/26 09:46:29;;;;;;;7.97;3.70;;;;;;;11.94;63.00;94092.06;5093049;28;20251;-82
2021/03/26 09:49:04;;;;;;;11.17;3.30;;;;;;;12.10;62.71;94096.09;5092801;28;20202;-78
2021/03/26 09:51:42;;;;;;;9.50;4.05;;;;;;;12.06;62.22;94088.84;5092388;28;20462;-82
2021/03/26 09:54:15;;;;;;;7.93;4.13;;;;;;;12.26;66.58;94088.81;5092568;28;20209;-83
2021/03/26 09:56:47;;;;;;;10.77;3.67;;;;;;;12.31;62.82;94086.44;5092851;28;20229;-83
2021/03/26 09:59:22;;;;;;;8.43;3.10;;;;;;;12.46;61.87;94099.31;5092705;28;20198;-84
2021/03/26 10:01:53;;;;;;;9.25;4.30;;;;;;;12.63;58.40;94095.22;5092395;28;20436;-82
2021/03/26 10:04:25;;;;;;;7.27;3.40;;;;;;;12.77;58.36;94099.44;5092658;28;20326;-85
2021/03/26 10:07:02;;;;;;;8.33;3.17;;;;;;;12.75;54.88;94092.78;5092978;28;20231;-84
2021/03/26 10:09:39;;;;;;;8.83;3.40;;;;;;;12.67;60.03;94087.75;5092732;28;20233;-80
2021/03/26 10:12:19;;;;;;;8.97;3.20;;;;;;;12.69;57.47;94093.59;5092548;28;20202;-81
2021/03/26 10:14:56;;;;;;;8.40;3.83;;;;;;;12.56;58.28;94084.75;5095702;28;20216;-79
2021/03/26 10:17:44;;;;;;;6.90;3.47;;;;;;;12.34;56.64;94086.00;5096575;28;20576;-82
2021/03/26 10:20:22;;;;;;;8.20;3.60;;;;;;;12.50;58.19;94084.78;5096182;28;20283;-81
2021/03/26 10:23:01;;;;;;;6.30;3.63;;;;;;;12.70;58.44;94075.03;5096360;28;20201;-81
2021/03/26 10:25:33;;;;;;;8.13;3.80;;;;;;;12.75;59.81;94077.06;5096309;28;20711;-79
2021/03/26 10:28:18;;;;;;;9.97;3.70;;;;;;;12.67;57.91;94074.66;5096359;28;20202;-79
2021/03/26 10:30:50;;;;;;;7.13;3.93;;;;;;;12.72;58.29;94064.38;5093948;28;20280;-81
2021/03/26 10:33:22;;;;;;;7.70;3.80;;;;;;;12.93;59.24;94064.09;5095846;28;20616;-79
2021/03/26 10:36:00;;;;;;;11.85;4.70;;;;;;;12.83;57.83;94063.72;5095828;28;20444;-78
2021/03/26 10:38:43;;;;;;;8.57;3.93;;;;;;;12.90;57.90;94050.59;5096012;28;20657;-80
2021/03/26 10:41:18;;;;;;;8.83;4.30;;;;;;;13.08;61.17;94044.69;5095894;28;20202;-79
2021/03/26 10:43:55;;;;;;;9.40;4.17;;;;;;;13.41;56.95;94046.38;5095871;28;20228;-80
2021/03/26 10:46:29;;;;;;;10.83;4.27;;;;;;;13.38;57.72;94034.47;5096026;28;20355;-80
2021/03/26 10:48:59;;;;;;;8.57;3.00;;;;;;;13.46;54.08;94043.91;5096035;28;20297;-80
2021/03/26 10:51:35;;;;;;;5.97;3.40;;;;;;;13.58;56.47;94039.59;5095980;28;20202;-81
2021/03/26 10:54:10;;;;;;;7.87;3.10;;;;;;;13.51;57.17;94030.97;5096062;28;20212;-80
2021/03/26 10:56:46;;;;;;;10.87;3.67;;;;;;;13.67;55.80;94032.25;5095853;28;20199;-80
2021/03/26 10:59:17;;;;;;;10.40;3.43;;;;;;;13.63;57.11;94026.63;5095707;28;20202;-79
2021/03/26 11:01:46;;;;;;;8.53;2.93;;;;;;;13.64;54.69;94024.84;5095291;28;20205;-80
2021/03/26 11:04:26;;;;;;;8.43;3.40;;;;;;;13.76;56.71;94014.44;5095432;28;20312;-78
2021/03/26 11:07:04;;;;;;;6.63;3.07;;;;;;;13.97;53.44;94018.50;5095567;28;20569;-78
2021/03/26 11:09:38;;;;;;;4.10;2.53;;;;;;;14.19;51.60;94018.94;5095667;28;20228;-79
2021/03/26 11:12:25;;;;;;;7.27;2.30;;;;;;;14.21;47.41;94015.06;5095387;28;20748;-78
2021/03/26 11:14:58;;;;;;;6.93;1.93;;;;;;;13.90;47.09;94029.06;5095575;28;20224;-79
2021/03/26 11:17:36;;;;;;;6.27;2.80;;;;;;;13.67;48.63;94022.59;5095378;28;20220;-79
2021/03/26 11:20:25;;;;;;;6.90;3.10;;;;;;;13.57;48.28;94022.22;5094407;28;20459;-79
2021/03/26 11:22:57;;;;;;;5.50;3.27;;;;;;;13.51;47.70;94012.59;5095292;28;20239;-79
2021/03/26 11:25:31;;;;;;;8.13;2.47;;;;;;;13.30;48.88;94014.50;5094416;28;20684;-80
2021/03/26 11:27:59;;;;;;;5.07;2.57;;;;;;;13.10;49.95;94005.94;5095350;28;20213;-81
2021/03/26 11:30:40;;;;;;;5.53;3.13;;;;;;;13.36;53.21;93991.91;5095158;28;20295;-79
2021/03/26 11:33:20;;;;;;;5.07;2.10;;;;;;;13.75;50.04;94002.34;5095097;28;20202;-78
2021/03/26 11:35:48;;;;;;;6.70;2.37;;;;;;;13.90;48.22;94002.81;5094999;28;20339;-78
2021/03/26 11:38:21;;;;;;;8.07;2.60;;;;;;;14.16;48.43;94006.22;5094743;28;20194;-79
2021/03/26 11:40:57;;;;;;;7.07;2.63;;;;;;;14.29;47.81;94000.84;5095022;28;20205;-80
2021/03/26 11:43:31;;;;;;;5.57;2.40;;;;;;;14.39;46.79;93995.88;5094816;28;20560;-80
2021/03/26 11:46:02;;;;;;;8.67;2.40;;;;;;;14.28;47.43;93995.81;5094743;28;20234;-77
2021/03/26 11:48:37;;;;;;;5.33;2.10;;;;;;;14.14;50.41;93984.59;5094431;28;20627;-79
2021/03/26 11:51:10;;;;;;;4.47;2.20;;;;;;;13.71;48.83;93986.22;5094860;28;20478;-79
2021/03/26 11:53:46;;;;;;;6.20;2.90;;;;;;;13.60;50.05;93982.44;5094698;28;20234;-79
2021/03/26 11:56:47;;;;;;;11.80;3.03;;;;;;;13.91;50.13;93972.94;5094599;28;20251;-79
2021/03/26 11:59:26;;;;;;;5.40;2.47;;;;;;;14.16;47.18;93972.88;5083261;28;20198;-80
2021/03/26 12:02:02;;;;;;;6.77;2.37;;;;;;;14.14;47.98;93981.97;5094546;28;20221;-80
2021/03/26 12:04:35;;;;;;;5.30;2.63;;;;;;;14.20;49.87;93970.63;5094295;28;20222;-80